Time;durP1;ratioP1;P1;durP2;ratioP2;P2;SDS_P1;SDS_P2;PMS_P1;PMS_P2;Temp;Humidity;BMP_temperature;BMP_pressure;BME280_temperature;BME280_humidity;BME280_pressure;Samples;Min_cycle;Max_cycle;Signal;HPM_P1;HPM_P2
2023/12/14 00:00:51;;;;;;;1.38;0.88;;;;;;;;;;5051034;28;20028;-90
2023/12/14 00:03:17;;;;;;;1.38;1.00;;;;;;;;;;5052434;28;20044;-89
2023/12/14 00:05:43;;;;;;;0.80;0.80;;;;;;;;;;5053140;28;20025;-91
2023/12/14 00:08:09;;;;;;;1.00;0.80;;;;;;;;;;5050305;28;20139;-91
2023/12/14 00:10:34;;;;;;;1.58;0.82;;;8.20;99.90;;;;;;5051723;28;20144;-90
2023/12/14 00:13:00;;;;;;;1.17;0.88;;;;;;;;;;5050173;28;20096;-90
2023/12/14 00:15:26;;;;;;;3.33;1.40;;;;;;;;;;5041592;28;20033;-90
2023/12/14 00:17:52;;;;;;;1.15;1.00;;;;;;;;;;5046893;28;20025;-90
2023/12/14 00:20:18;;;;;;;1.10;0.77;;;;;;;;;;5060218;28;20409;-90
2023/12/14 00:22:44;;;;;;;0.80;0.80;;;;;;;;;;5053868;28;20624;-90
2023/12/14 00:25:10;;;;;;;2.40;0.98;;;;;;;;;;5059800;28;20032;-89
2023/12/14 00:27:36;;;;;;;2.83;1.05;;;;;;;;;;5039732;28;20433;-90
2023/12/14 00:30:03;;;;;;;3.42;1.02;;;;;;;;;;5051279;28;20079;-88
2023/12/14 00:32:29;;;;;;;2.25;1.05;;;;;;;;;;5069496;28;20029;-87
2023/12/14 00:34:55;;;;;;;1.52;1.00;;;;;;;;;;5055722;28;20090;-89
2023/12/14 00:37:21;;;;;;;2.30;1.73;;;;;;;;;;5052749;28;20025;-89
2023/12/14 00:39:47;;;;;;;1.45;1.00;;;;;;;;;;5051521;28;20025;-90
2023/12/14 00:42:13;;;;;;;2.80;1.83;;;;;;;;;;5049486;28;20025;-90
2023/12/14 00:44:39;;;;;;;1.25;1.13;;;;;;;;;;5041938;28;20034;-89
2023/12/14 00:47:05;;;;;;;1.67;1.25;;;;;;;;;;5047077;28;20056;-90
2023/12/14 00:49:30;;;;;;;3.50;1.35;;;8.70;99.90;;;;;;5051019;28;20021;-90
2023/12/14 00:51:58;;;;;;;0.95;0.95;;;;;;;;;;5054932;28;20035;-89
2023/12/14 00:54:24;;;;;;;3.95;1.25;;;;;;;;;;5059462;28;20130;-90
2023/12/14 00:56:50;;;;;;;1.75;0.85;;;;;;;;;;5053738;28;20056;-90
2023/12/14 00:59:16;;;;;;;2.00;1.30;;;;;;;;;;5042220;28;20026;-90
2023/12/14 01:01:42;;;;;;;1.77;1.05;;;;;;;;;;5033546;28;20030;-90
2023/12/14 01:04:08;;;;;;;1.75;0.93;;;;;;;;;;5050269;28;20437;-90
2023/12/14 01:06:34;;;;;;;5.43;1.38;;;;;;;;;;5050723;28;20025;-90
2023/12/14 01:09:00;;;;;;;2.80;1.13;;;;;;;;;;5050699;28;20069;-90
2023/12/14 01:11:26;;;;;;;1.45;0.98;;;;;;;;;;5049446;28;20155;-89
2023/12/14 01:13:52;;;;;;;1.10;1.00;;;;;;;;;;5062635;28;20091;-90
2023/12/14 01:16:18;;;;;;;3.65;1.70;;;;;;;;;;5050976;28;20029;-90
2023/12/14 01:18:44;;;;;;;2.00;0.95;;;;;;;;;;5050637;28;20516;-90
2023/12/14 01:21:10;;;;;;;1.15;1.10;;;;;;;;;;5063830;28;20017;-89
2023/12/14 01:23:36;;;;;;;6.15;1.00;;;;;;;;;;5050444;28;20075;-90
2023/12/14 01:26:02;;;;;;;1.00;0.63;;;;;;;;;;5050448;28;20583;-89
2023/12/14 01:28:28;;;;;;;0.70;0.70;;;;;;;;;;5048366;28;20032;-89
2023/12/14 01:30:54;;;;;;;1.50;1.40;;;;;;;;;;5050999;28;20032;-89
2023/12/14 01:33:20;;;;;;;0.93;0.65;;;;;;;;;;5050717;28;20042;-90
2023/12/14 01:35:46;;;;;;;0.93;0.90;;;;;;;;;;5050140;28;20021;-90
2023/12/14 01:38:12;;;;;;;1.13;0.88;;;;;;;;;;5049379;28;20857;-89
2023/12/14 01:40:38;;;;;;;2.00;0.95;;;;;;;;;;5042717;28;20411;-89
2023/12/14 01:43:09;;;;;;;1.50;1.10;;;8.20;99.70;;;;;;5047784;28;20032;-89
2023/12/14 01:45:34;;;;;;;2.88;1.67;;;8.10;99.90;;;;;;5054808;28;20032;-89
2023/12/14 01:48:00;;;;;;;1.35;1.00;;;;;;;;;;5049862;28;20021;-89
2023/12/14 01:50:26;;;;;;;1.48;1.13;;;;;;;;;;5043682;28;20032;-89
2023/12/14 01:52:52;;;;;;;0.88;0.80;;;;;;;;;;5050996;28;20501;-89
2023/12/14 01:55:18;;;;;;;2.08;1.10;;;;;;;;;;5050236;28;20036;-90
2023/12/14 01:57:44;;;;;;;2.08;1.10;;;;;;;;;;5048163;28;20378;-89
2023/12/14 02:00:23;;;;;;;1.38;0.85;;;7.90;99.90;;;;;;5050487;28;20021;-89
2023/12/14 02:02:49;;;;;;;0.55;0.55;;;;;;;;;;5054197;28;20066;-89
2023/12/14 02:05:16;;;;;;;0.45;0.30;;;;;;;;;;5053059;28;20094;-88
2023/12/14 02:07:42;;;;;;;0.45;0.45;;;;;;;;;;5054300;28;20041;-89
2023/12/14 02:10:08;;;;;;;0.40;0.40;;;8.20;99.00;;;;;;5053070;28;20805;-89
2023/12/14 02:12:34;;;;;;;0.40;0.40;;;8.20;99.90;;;;;;5053646;28;20021;-89
2023/12/14 02:15:00;;;;;;;0.40;0.40;;;;;;;;;;5052428;28;20036;-89
2023/12/14 02:17:26;;;;;;;0.40;0.40;;;;;;;;;;5052819;28;20494;-89
2023/12/14 02:19:52;;;;;;;0.52;0.50;;;;;;;;;;5053234;28;20119;-88
2023/12/14 02:22:18;;;;;;;0.30;0.30;;;;;;;;;;5053633;28;20029;-89
2023/12/14 02:24:44;;;;;;;0.32;0.32;;;7.80;99.90;;;;;;5052965;28;20452;-89
2023/12/14 02:27:10;;;;;;;2.05;0.47;;;;;;;;;;5053758;28;20021;-89
2023/12/14 02:29:36;;;;;;;0.40;0.40;;;;;;;;;;5048386;28;20018;-89
2023/12/14 02:32:02;;;;;;;0.60;0.60;;;;;;;;;;5075985;28;20035;-89
2023/12/14 02:34:28;;;;;;;0.63;0.50;;;;;;;;;;5052976;28;20036;-88
2023/12/14 02:36:54;;;;;;;0.40;0.40;;;;;;;;;;5065902;28;20032;-89
2023/12/14 02:39:20;;;;;;;0.68;0.50;;;;;;;;;;5053125;28;20505;-89
2023/12/14 02:41:46;;;;;;;0.75;0.30;;;;;;;;;;5040237;28;20025;-89
2023/12/14 02:44:12;;;;;;;0.40;0.40;;;;;;;;;;5054325;28;20378;-88
2023/12/14 02:46:38;;;;;;;0.65;0.65;;;;;;;;;;5052377;28;20032;-89
2023/12/14 02:49:04;;;;;;;1.55;0.55;;;;;;;;;;5052972;28;20035;-89
2023/12/14 02:51:30;;;;;;;1.40;0.70;;;;;;;;;;5052778;28;20025;-89
2023/12/14 02:53:57;;;;;;;1.05;0.65;;;;;;;;;;5058943;28;20059;-87
2023/12/14 02:56:24;;;;;;;1.13;0.80;;;;;;;;;;5060913;28;20025;-86
2023/12/14 02:58:51;;;;;;;1.55;0.77;;;;;;;;;;5055838;28;20088;-88
2023/12/14 03:01:23;;;;;;;6.50;0.73;;;7.80;97.60;;;;;;5056900;28;20047;-89
2023/12/14 03:03:49;;;;;;;2.08;1.25;;;;;;;;;;5055668;28;20028;-89
2023/12/14 03:06:16;;;;;;;1.45;0.90;;;;;;;;;;5054401;28;20508;-88
2023/12/14 03:08:42;;;;;;;1.85;0.80;;;;;;;;;;5052780;28;20073;-89
2023/12/14 03:11:08;;;;;;;0.60;0.60;;;;;;;;;;5040743;28;20048;-90
2023/12/14 03:13:34;;;;;;;1.60;1.42;;;7.90;99.90;;;;;;5056835;28;20013;-88
2023/12/14 03:16:00;;;;;;;1.10;0.90;;;;;;;;;;5059808;28;20042;-89
2023/12/14 03:18:26;;;;;;;0.73;0.63;;;;;;;;;;5052416;28;20394;-89
2023/12/14 03:20:52;;;;;;;1.75;0.75;;;;;;;;;;5065851;28;20032;-89
2023/12/14 03:23:18;;;;;;;1.08;0.73;;;;;;;;;;5044967;28;20430;-89
2023/12/14 03:25:44;;;;;;;1.55;1.00;;;;;;;;;;5045893;28;20093;-89
2023/12/14 03:28:10;;;;;;;2.70;1.60;;;;;;;;;;5051941;28;20394;-89
2023/12/14 03:30:36;;;;;;;1.05;0.98;;;;;;;;;;5051778;28;20032;-90
2023/12/14 03:33:02;;;;;;;1.58;1.20;;;;;;;;;;5052258;28;20083;-89
2023/12/14 03:35:28;;;;;;;1.67;1.27;;;;;;;;;;5051796;28;20083;-89
2023/12/14 03:37:54;;;;;;;0.95;0.90;;;;;;;;;;5052775;28;20023;-89
2023/12/14 03:40:20;;;;;;;1.05;0.70;;;;;;;;;;5064863;28;20066;-89
2023/12/14 03:42:46;;;;;;;1.75;1.48;;;;;;;;;;5054429;28;20055;-90
2023/12/14 03:45:12;;;;;;;0.95;0.93;;;;;;;;;;5038392;28;20036;-89
2023/12/14 03:47:38;;;;;;;1.35;1.13;;;;;;;;;;5051982;28;20028;-89
2023/12/14 03:50:05;;;;;;;2.05;1.15;;;;;;;;;;5050093;28;20096;-90
2023/12/14 03:52:31;;;;;;;0.93;0.85;;;7.70;99.90;;;;;;5052099;28;20134;-90
2023/12/14 03:54:57;;;;;;;1.17;0.93;;;;;;;;;;5051169;28;20045;-89
2023/12/14 03:57:23;;;;;;;0.65;0.65;;;;;;;;;;5050309;28;20032;-89
2023/12/14 03:59:49;;;;;;;1.55;1.02;;;;;;;;;;5050574;28;20029;-90
2023/12/14 04:02:15;;;;;;;1.90;0.82;;;;;;;;;;5050439;28;20060;-88
2023/12/14 04:04:41;;;;;;;1.75;1.55;;;;;;;;;;5041374;28;20848;-89
2023/12/14 04:07:07;;;;;;;1.73;1.25;;;;;;;;;;5043324;28;20478;-89
2023/12/14 04:09:33;;;;;;;0.98;0.70;;;;;;;;;;5045913;28;20021;-89
2023/12/14 04:11:59;;;;;;;1.10;1.00;;;;;;;;;;5040567;28;20021;-89
2023/12/14 04:14:25;;;;;;;1.73;1.60;;;;;;;;;;5051096;28;20036;-89
2023/12/14 04:16:51;;;;;;;2.15;0.90;;;;;;;;;;5052009;28;20438;-89
2023/12/14 04:19:17;;;;;;;1.60;1.00;;;;;;;;;;5050717;28;20406;-89
2023/12/14 04:21:43;;;;;;;1.33;0.95;;;;;;;;;;5050554;28;20028;-89
2023/12/14 04:24:09;;;;;;;1.55;1.23;;;;;;;;;;5050083;28;20120;-89
2023/12/14 04:26:35;;;;;;;1.10;0.93;;;;;;;;;;5049749;28;20029;-88
2023/12/14 04:29:01;;;;;;;1.73;1.30;;;7.70;99.90;;;;;;5050788;28;20043;-89
2023/12/14 04:31:27;;;;;;;0.75;0.75;;;;;;;;;;5058225;28;20024;-89
2023/12/14 04:33:53;;;;;;;1.60;1.23;;;7.70;99.90;;;;;;5064758;28;20032;-89
2023/12/14 04:36:19;;;;;;;1.20;1.00;;;;;;;;;;5058220;28;20024;-88
2023/12/14 04:38:46;;;;;;;1.65;0.82;;;;;;;;;;5054264;28;20021;-89
2023/12/14 04:41:12;;;;;;;0.77;0.77;;;7.60;97.00;;;;;;5058794;28;20266;-89
2023/12/14 04:43:38;;;;;;;1.33;1.23;;;;;;;;;;5052438;28;20036;-88
2023/12/14 04:46:06;;;;;;;1.05;0.90;;;;;;;;;;5032116;28;20113;-88
2023/12/14 04:48:31;;;;;;;;;;;7.60;96.90;;;;;;5048256;28;20296;-89
2023/12/14 04:50:57;;;;;;;1.13;1.02;;;;;;;;;;5052575;28;19999;-90
2023/12/14 04:53:23;;;;;;;0.98;0.90;;;;;;;;;;5063221;28;20037;-88
2023/12/14 04:55:49;;;;;;;2.50;1.15;;;;;;;;;;5039449;28;20394;-88
2023/12/14 04:58:15;;;;;;;1.38;1.27;;;;;;;;;;5050585;28;20028;-89
2023/12/14 05:00:42;;;;;;;1.00;0.90;;;;;;;;;;5050384;28;20033;-89
2023/12/14 05:03:08;;;;;;;0.90;0.70;;;;;;;;;;5050625;28;20086;-88
2023/12/14 05:05:34;;;;;;;2.08;1.20;;;;;;;;;;5056919;28;20036;-89
2023/12/14 05:08:00;;;;;;;1.13;1.00;;;;;;;;;;5036001;28;20030;-89
2023/12/14 05:10:26;;;;;;;1.08;1.08;;;;;;;;;;5059418;28;20028;-89
2023/12/14 05:12:52;;;;;;;1.92;1.30;;;;;;;;;;5054468;28;20524;-89
2023/12/14 05:15:18;;;;;;;6.00;1.25;;;;;;;;;;5049855;28;20112;-89
2023/12/14 05:17:45;;;;;;;1.27;0.95;;;7.60;95.30;;;;;;5039898;28;20052;-87
2023/12/14 05:20:11;;;;;;;1.35;1.05;;;7.60;99.90;;;;;;5053070;28;20033;-89
2023/12/14 05:22:37;;;;;;;7.50;1.70;;;;;;;;;;5053393;28;20099;-89
2023/12/14 05:25:04;;;;;;;1.23;1.13;;;7.60;95.00;;;;;;5051144;28;20047;-88
2023/12/14 05:27:30;;;;;;;1.67;1.55;;;;;;;;;;5050273;28;20021;-89
2023/12/14 05:29:56;;;;;;;0.75;0.75;;;;;;;;;;5049949;28;20398;-88
2023/12/14 05:32:22;;;;;;;1.30;0.88;;;;;;;;;;5049954;28;20021;-89
2023/12/14 05:34:48;;;;;;;2.90;0.98;;;;;;;;;;5050469;28;20045;-89
2023/12/14 05:37:14;;;;;;;1.40;1.20;;;;;;;;;;5052416;28;20021;-88
2023/12/14 05:39:42;;;;;;;3.05;1.30;;;8.70;94.10;;;;;;5054168;28;20029;-90
2023/12/14 05:42:08;;;;;;;7.13;1.45;;;;;;;;;;5067706;28;20024;-90
2023/12/14 05:44:34;;;;;;;1.67;1.23;;;;;;;;;;5060519;28;20544;-90
2023/12/14 05:47:00;;;;;;;3.70;0.82;;;;;;;;;;5057664;28;20010;-90
2023/12/14 05:49:26;;;;;;;1.27;1.00;;;;;;;;;;5052854;28;20029;-90
2023/12/14 05:51:52;;;;;;;1.10;0.93;;;;;;;;;;5052831;28;20029;-90
2023/12/14 05:54:18;;;;;;;1.55;0.85;;;;;;;;;;5053853;28;20106;-90
2023/12/14 05:56:44;;;;;;;1.88;1.10;;;;;;;;;;5053180;28;20390;-90
2023/12/14 05:59:10;;;;;;;0.80;0.80;;;;;;;;;;5053967;28;20031;-90
2023/12/14 06:01:36;;;;;;;1.58;1.42;;;;;;;;;;5053602;28;20056;-89
2023/12/14 06:04:02;;;;;;;0.80;0.80;;;7.60;97.90;;;;;;5053534;28;20040;-88
2023/12/14 06:06:28;;;;;;;3.15;0.95;;;;;;;;;;5049512;28;20445;-90
2023/12/14 06:08:54;;;;;;;0.80;0.80;;;;;;;;;;5057066;28;20041;-89
2023/12/14 06:11:20;;;;;;;5.18;1.42;;;7.50;99.90;;;;;;5055970;28;20493;-90
2023/12/14 06:13:46;;;;;;;2.47;1.58;;;;;;;;;;5058909;28;20109;-90
2023/12/14 06:16:12;;;;;;;0.70;0.70;;;;;;;;;;5053157;28;20051;-89
2023/12/14 06:18:43;;;;;;;2.40;2.00;;;7.80;93.60;;;;;;5052484;28;20033;-89
2023/12/14 06:21:10;;;;;;;0.98;0.93;;;7.80;99.90;;;;;;5053608;28;20088;-89
2023/12/14 06:23:36;;;;;;;1.23;1.13;;;7.40;99.90;;;;;;5048556;28;20030;-89
2023/12/14 06:26:03;;;;;;;1.85;1.75;;;7.60;92.70;;;;;;5052579;28;20036;-90
2023/12/14 06:28:30;;;;;;;0.65;0.65;;;7.60;99.90;;;;;;5056218;28;20025;-90
2023/12/14 06:30:57;;;;;;;1.77;1.63;;;;;;;;;;5056643;28;20481;-89
2023/12/14 06:33:23;;;;;;;8.15;1.63;;;;;;;;;;5050791;28;20046;-89
2023/12/14 06:35:49;;;;;;;1.17;1.05;;;;;;;;;;5053782;28;20112;-89
2023/12/14 06:38:15;;;;;;;6.70;1.00;;;;;;;;;;5052324;28;20565;-89
2023/12/14 06:40:42;;;;;;;1.70;1.10;;;7.50;99.90;;;;;;5054875;28;20299;-82
2023/12/14 06:43:08;;;;;;;3.40;1.02;;;;;;;;;;5042006;28;20118;-81
2023/12/14 06:45:37;;;;;;;1.65;0.93;;;7.50;94.20;;;;;;5046442;28;20052;-83
2023/12/14 06:48:03;;;;;;;6.70;3.38;;;7.60;98.10;;;;;;5048538;28;20029;-79
2023/12/14 06:50:29;;;;;;;4.93;2.85;;;7.60;99.90;;;;;;5048985;28;20025;-78
2023/12/14 06:52:55;;;;;;;4.15;3.15;;;;;;;;;;5050151;28;20047;-78
2023/12/14 06:55:21;;;;;;;3.03;2.22;;;7.50;99.00;;;;;;5047937;28;20124;-77
2023/12/14 06:57:46;;;;;;;8.68;1.90;;;7.50;99.90;;;;;;5050566;28;20152;-79
2023/12/14 07:00:13;;;;;;;1.95;1.65;;;7.60;98.50;;;;;;5050363;28;20068;-82
2023/12/14 07:02:39;;;;;;;2.95;2.10;;;;;;;;;;5050251;28;20072;-82
2023/12/14 07:05:05;;;;;;;4.43;1.88;;;;;;;;;;5049405;28;20116;-82
2023/12/14 07:07:31;;;;;;;1.25;1.10;;;;;;;;;;5048080;28;20044;-82
2023/12/14 07:09:57;;;;;;;1.13;1.02;;;;;;;;;;5049463;28;20442;-82
2023/12/14 07:12:23;;;;;;;4.68;2.72;;;;;;;;;;5049834;28;20029;-82
2023/12/14 07:14:49;;;;;;;2.53;2.00;;;;;;;;;;5050532;28;20514;-83
2023/12/14 07:17:16;;;;;;;5.57;1.67;;;;;;;;;;5057261;28;20106;-82
2023/12/14 07:19:42;;;;;;;1.35;1.23;;;;;;;;;;5048627;28;20690;-82
2023/12/14 07:22:08;;;;;;;2.00;1.33;;;;;;;;;;5050118;28;20117;-82
2023/12/14 07:24:34;;;;;;;3.22;2.53;;;;;;;;;;5048868;28;20025;-83
2023/12/14 07:27:00;;;;;;;2.53;1.25;;;;;;;;;;5049535;28;20486;-82
2023/12/14 07:29:27;;;;;;;1.02;0.93;;;;;;;;;;5050253;28;20064;-81
2023/12/14 07:31:52;;;;;;;1.88;1.67;;;7.60;99.90;;;;;;5049940;28;20023;-82
2023/12/14 07:34:20;;;;;;;1.90;1.00;;;;;;;;;;5046701;28;20486;-84
2023/12/14 07:36:46;;;;;;;1.10;1.00;;;;;;;;;;5043290;28;20024;-83
2023/12/14 07:39:12;;;;;;;1.92;1.45;;;;;;;;;;5046247;28;20378;-85
2023/12/14 07:41:38;;;;;;;1.38;1.23;;;;;;;;;;5048466;28;20033;-84
2023/12/14 07:44:04;;;;;;;0.80;0.80;;;;;;;;;;5059808;28;20115;-79
2023/12/14 07:46:30;;;;;;;1.65;0.73;;;7.50;99.90;;;;;;5049383;28;20041;-83
2023/12/14 07:48:56;;;;;;;2.10;0.93;;;;;;;;;;5046717;28;20052;-82
2023/12/14 07:51:22;;;;;;;0.93;0.90;;;;;;;;;;5041982;28;20082;-86
2023/12/14 07:53:48;;;;;;;0.85;0.85;;;;;;;;;;5050747;28;20115;-89
2023/12/14 07:56:14;;;;;;;0.80;0.80;;;;;;;;;;5048359;28;20025;-84
2023/12/14 07:58:40;;;;;;;1.35;1.25;;;7.60;99.90;;;;;;5058495;28;20636;-83
2023/12/14 08:01:06;;;;;;;2.08;1.40;;;;;;;;;;5049489;28;20121;-85
2023/12/14 08:03:32;;;;;;;2.13;1.75;;;;;;;;;;5048964;28;20025;-83
2023/12/14 08:05:58;;;;;;;0.75;0.68;;;;;;;;;;5049219;28;20041;-83
2023/12/14 08:08:24;;;;;;;2.70;0.80;;;;;;;;;;5049173;28;20017;-83
2023/12/14 08:10:50;;;;;;;3.35;1.98;;;;;;;;;;5049294;28;20501;-84
2023/12/14 08:13:16;;;;;;;1.77;1.10;;;;;;;;;;5049147;28;20028;-84
2023/12/14 08:15:42;;;;;;;1.35;0.70;;;;;;;;;;5049408;28;20025;-83
2023/12/14 08:18:08;;;;;;;2.40;1.00;;;;;;;;;;5047838;28;20135;-83
2023/12/14 08:20:34;;;;;;;1.15;0.68;;;;;;;;;;5048884;28;20524;-83
2023/12/14 08:23:00;;;;;;;1.10;1.00;;;;;;;;;;5049292;28;20029;-80
2023/12/14 08:25:26;;;;;;;1.52;0.77;;;;;;;;;;5044415;28;20545;-81
2023/12/14 08:27:52;;;;;;;2.05;1.45;;;;;;;;;;5048214;28;20079;-81
2023/12/14 08:30:18;;;;;;;1.67;1.15;;;;;;;;;;5061904;28;20060;-89
2023/12/14 08:32:44;;;;;;;1.02;0.80;;;;;;;;;;5049209;28;20024;-89
2023/12/14 08:35:10;;;;;;;1.10;1.00;;;;;;;;;;5049418;28;20028;-86
2023/12/14 08:37:36;;;;;;;2.88;0.90;;;;;;;;;;5062105;28;20083;-86
2023/12/14 08:40:03;;;;;;;0.75;0.75;;;8.30;99.50;;;;;;5049192;28;20052;-87
2023/12/14 08:42:29;;;;;;;1.10;0.87;;;;;;;;;;5049387;28;20603;-86
2023/12/14 08:44:55;;;;;;;1.00;0.80;;;;;;;;;;5056609;28;20041;-87
2023/12/14 08:47:21;;;;;;;0.80;0.80;;;;;;;;;;5042988;28;20040;-87
2023/12/14 08:49:47;;;;;;;0.52;0.50;;;;;;;;;;5046148;28;20307;-86
2023/12/14 08:52:14;;;;;;;1.08;1.00;;;;;;;;;;5041721;28;20033;-81
2023/12/14 08:54:43;;;;;;;0.80;0.80;;;;;;;;;;5039600;28;20045;-81
2023/12/14 08:57:09;;;;;;;0.95;0.65;;;;;;;;;;5044417;28;20083;-80
2023/12/14 08:59:35;;;;;;;1.83;0.90;;;8.40;99.90;;;;;;5047809;28;20017;-80
2023/12/14 09:02:01;;;;;;;0.43;0.43;;;;;;;;;;5043612;28;20036;-77
2023/12/14 09:04:27;;;;;;;0.57;0.40;;;;;;;;;;5048370;28;20091;-80
2023/12/14 09:06:53;;;;;;;0.50;0.50;;;;;;;;;;5048566;28;20029;-80
2023/12/14 09:09:19;;;;;;;0.73;0.50;;;;;;;;;;5046392;28;20036;-79
2023/12/14 09:11:48;;;;;;;0.50;0.50;;;8.60;96.70;;;;;;5059534;28;20012;-84
2023/12/14 09:14:16;;;;;;;1.95;0.55;;;;;;;;;;5046959;28;20071;-84
2023/12/14 09:16:41;;;;;;;3.13;0.82;;;8.50;99.90;;;;;;5052485;28;20021;-82
2023/12/14 09:19:07;;;;;;;0.63;0.63;;;;;;;;;;5052114;28;20051;-83
2023/12/14 09:21:33;;;;;;;0.82;0.50;;;8.80;99.90;;;;;;5052504;28;20025;-83
2023/12/14 09:23:59;;;;;;;0.30;0.30;;;;;;;;;;5051966;28;20166;-83
2023/12/14 09:26:24;;;;;;;0.40;0.40;;;8.80;99.90;;;;;;5052603;28;20507;-83
2023/12/14 09:28:50;;;;;;;0.63;0.52;;;;;;;;;;5052574;28;20032;-82
2023/12/14 09:31:16;;;;;;;0.50;0.50;;;;;;;;;;5052564;28;20032;-82
2023/12/14 09:33:43;;;;;;;0.50;0.50;;;;;;;;;;5051971;28;20029;-83
2023/12/14 09:36:08;;;;;;;0.50;0.50;;;9.10;99.90;;;;;;5052849;28;20044;-83
2023/12/14 09:38:35;;;;;;;0.40;0.40;;;;;;;;;;5051505;28;20452;-83
2023/12/14 09:41:02;;;;;;;2.17;0.77;;;;;;;;;;5045487;28;20493;-83
2023/12/14 09:43:28;;;;;;;14.43;4.13;;;;;;;;;;5054658;28;20036;-83
2023/12/14 09:45:55;;;;;;;6.18;1.55;;;9.30;94.40;;;;;;5044926;28;20442;-83
2023/12/14 09:48:22;;;;;;;2.10;1.40;;;9.40;94.50;;;;;;5051521;28;20028;-83
2023/12/14 09:50:49;;;;;;;;;;;9.60;94.40;;;;;;5051883;28;20391;-83
2023/12/14 09:53:15;;;;;;;0.82;0.80;;;;;;;;;;5051014;28;20002;-83
2023/12/14 09:55:41;;;;;;;0.70;0.70;;;;;;;;;;5064303;28;20053;-83
2023/12/14 09:58:09;;;;;;;2.20;1.48;;;;;;;;;;5051814;28;20412;-83
2023/12/14 10:00:40;;;;;;;0.60;0.60;;;9.70;98.20;;;;;;5040138;28;20025;-82
2023/12/14 10:03:18;;;;;;;0.60;0.60;;;9.50;94.00;;;;;;5051885;28;20098;-80
2023/12/14 10:05:44;;;;;;;2.25;1.40;;;;;;;;;;5046726;28;20039;-83
2023/12/14 10:08:10;;;;;;;1.25;0.88;;;;;;;;;;5047587;28;20136;-78
2023/12/14 10:10:36;;;;;;;0.88;0.88;;;;;;;;;;5051285;28;20107;-85
2023/12/14 10:13:03;;;;;;;2.28;1.08;;;;;;;;;;5050338;28;20442;-85
2023/12/14 10:15:29;;;;;;;2.13;0.80;;;9.50;95.00;;;;;;5048067;28;20052;-83
2023/12/14 10:17:55;;;;;;;1.20;0.73;;;9.50;92.20;;;;;;5051093;28;20486;-82
2023/12/14 10:20:26;;;;;;;0.95;0.90;;;9.30;92.80;;;;;;5055038;28;20159;-82
2023/12/14 10:22:52;;;;;;;0.80;0.70;;;;;;;;;;5051289;28;20052;-85
2023/12/14 10:25:20;;;;;;;0.68;0.68;;;9.60;91.60;;;;;;5042714;28;20039;-84
2023/12/14 10:27:47;;;;;;;0.50;0.50;;;9.60;91.60;;;;;;5051289;28;20027;-84
2023/12/14 10:30:15;;;;;;;0.57;0.57;;;9.70;99.20;;;;;;5051003;28;20029;-83
2023/12/14 10:32:41;;;;;;;0.50;0.50;;;9.70;99.90;;;;;;5053502;28;20031;-85
2023/12/14 10:35:07;;;;;;;0.70;0.70;;;9.80;99.90;;;;;;5051622;28;20112;-85
2023/12/14 10:37:37;;;;;;;0.73;0.73;;;9.90;92.60;;;;;;5050718;28;20021;-83
2023/12/14 10:40:05;;;;;;;0.63;0.63;;;9.90;92.00;;;;;;5051521;28;20527;-81
2023/12/14 10:42:33;;;;;;;0.50;0.50;;;9.90;90.60;;;;;;5051037;28;20028;-81
2023/12/14 10:45:00;;;;;;;0.68;0.68;;;10.10;90.90;;;;;;5050904;28;20087;-81
2023/12/14 10:47:26;;;;;;;0.50;0.50;;;10.20;90.50;;;;;;5050396;28;20025;-81
2023/12/14 10:49:53;;;;;;;0.50;0.50;;;10.10;88.90;;;;;;5049494;28;20044;-81
2023/12/14 10:52:22;;;;;;;0.60;0.60;;;10.10;97.50;;;;;;5050559;28;20028;-84
2023/12/14 10:54:52;;;;;;;0.60;0.60;;;10.00;90.90;;;;;;5050346;28;20139;-82
2023/12/14 10:57:18;;;;;;;0.60;0.60;;;;;;;;;;5050485;28;20528;-82
2023/12/14 10:59:44;;;;;;;0.50;0.50;;;;;;;;;;5050044;28;20044;-86
2023/12/14 11:02:11;;;;;;;0.75;0.70;;;;;;;;;;5051093;28;20017;-85
2023/12/14 11:04:56;;;;;;;0.70;0.70;;;10.10;89.50;;;;;;5060368;28;20041;-84
2023/12/14 11:07:50;;;;;;;0.40;0.40;;;10.20;94.30;;;;;;5050256;28;20039;-85
2023/12/14 11:10:26;;;;;;;0.82;0.60;;;10.50;88.10;;;;;;5057037;28;20037;-83
2023/12/14 11:13:02;;;;;;;0.40;0.40;;;10.50;83.30;;;;;;5050136;28;20535;-82
2023/12/14 11:15:30;;;;;;;1.00;0.43;;;10.30;85.50;;;;;;5049910;28;20101;-81
2023/12/14 11:18:11;;;;;;;;;;;10.40;86.00;;;;;;5050628;28;20072;-82
2023/12/14 11:20:45;;;;;;;3.40;0.80;;;10.10;88.20;;;;;;5056782;28;20007;-88
2023/12/14 11:23:24;;;;;;;0.60;0.60;;;10.00;98.00;;;;;;5042950;28;20035;-88
2023/12/14 11:25:53;;;;;;;1.55;1.10;;;10.00;89.30;;;;;;5046186;28;20094;-87
2023/12/14 11:28:19;;;;;;;0.80;0.80;;;9.90;92.20;;;;;;5047139;28;20021;-88
2023/12/14 11:30:46;;;;;;;0.77;0.77;;;;;;;;;;5045289;28;20151;-89
2023/12/14 11:33:16;;;;;;;0.40;0.40;;;9.90;90.00;;;;;;5041535;28;20033;-89
2023/12/14 11:35:42;;;;;;;0.50;0.50;;;9.90;92.90;;;;;;5046616;28;20039;-89
2023/12/14 11:38:13;;;;;;;0.40;0.40;;;;;;;;;;5058589;28;20029;-88
2023/12/14 11:40:39;;;;;;;0.40;0.40;;;9.50;90.70;;;;;;5055285;28;20029;-89
2023/12/14 11:43:07;;;;;;;0.40;0.40;;;;;;;;;;5065467;28;20109;-89
2023/12/14 11:45:40;;;;;;;0.47;0.47;;;9.60;90.10;;;;;;5040569;28;20075;-89
2023/12/14 11:48:10;;;;;;;0.40;0.40;;;9.60;90.70;;;;;;5051053;28;20033;-88
2023/12/14 11:50:36;;;;;;;0.50;0.50;;;9.50;90.70;;;;;;5051674;28;20025;-88
2023/12/14 11:53:05;;;;;;;0.82;0.68;;;;;;;;;;5049927;28;20048;-88
2023/12/14 11:55:35;;;;;;;0.50;0.50;;;9.30;97.60;;;;;;5063415;28;20070;-88
2023/12/14 11:58:01;;;;;;;1.02;0.52;;;;;;;;;;5062488;28;20477;-88
2023/12/14 12:00:30;;;;;;;4.32;3.10;;;9.20;91.50;;;;;;5049612;28;20019;-81
2023/12/14 12:03:12;;;;;;;0.82;0.82;;;9.20;99.90;;;;;;5049106;28;20033;-81
2023/12/14 12:05:39;;;;;;;1.17;1.08;;;9.30;99.90;;;;;;5049400;28;20037;-82
2023/12/14 12:08:05;;;;;;;0.75;0.75;;;;;;;;;;5048711;28;20064;-81
2023/12/14 12:10:32;;;;;;;0.60;0.60;;;;;;;;;;5040282;28;20029;-83
2023/12/14 12:13:11;;;;;;;0.93;0.93;;;9.20;92.40;;;;;;5043484;28;20036;-91
2023/12/14 12:15:37;;;;;;;6.60;2.72;;;;;;;;;;5054063;28;20087;-82
2023/12/14 12:18:13;;;;;;;1.77;1.17;;;9.00;93.10;;;;;;5045316;28;20501;-83
2023/12/14 12:20:39;;;;;;;0.60;0.60;;;;;;;;;;5049610;28;20501;-83
2023/12/14 12:23:05;;;;;;;0.88;0.88;;;;;;;;;;5049524;28;20029;-82
2023/12/14 12:25:32;;;;;;;17.33;5.38;;;;;;;;;;5049458;28;20031;-84
2023/12/14 12:27:58;;;;;;;17.45;5.03;;;9.00;93.10;;;;;;5048974;28;20021;-83
2023/12/14 12:30:24;;;;;;;10.65;3.22;;;;;;;;;;5049287;28;20763;-84
2023/12/14 12:32:51;;;;;;;8.65;3.30;;;;;;;;;;5051162;28;20083;-82
2023/12/14 12:35:18;;;;;;;0.98;0.90;;;9.20;92.70;;;;;;5048836;28;20032;-84
2023/12/14 12:37:44;;;;;;;11.40;4.68;;;;;;;;;;5049736;28;20087;-84
2023/12/14 12:40:11;;;;;;;2.33;1.65;;;9.50;92.10;;;;;;5049368;28;20032;-82
2023/12/14 12:42:37;;;;;;;2.88;1.92;;;;;;;;;;5049109;28;20021;-82
2023/12/14 12:45:04;;;;;;;5.43;2.72;;;9.70;95.10;;;;;;5059569;28;20531;-81
2023/12/14 12:47:30;;;;;;;1.05;0.90;;;;;;;;;;5049099;28;20048;-81
2023/12/14 12:49:56;;;;;;;0.98;0.77;;;;;;;;;;5047083;28;20032;-81
2023/12/14 12:52:22;;;;;;;0.70;0.70;;;;;;;;;;5047240;28;20446;-80
2023/12/14 12:54:48;;;;;;;1.10;1.00;;;;;;;;;;5049074;28;20096;-82
2023/12/14 12:57:15;;;;;;;0.60;0.60;;;;;;;;;;5048442;28;20049;-84
2023/12/14 12:59:41;;;;;;;0.50;0.50;;;;;;;;;;5048725;28;20091;-83
2023/12/14 13:02:07;;;;;;;0.50;0.50;;;9.70;99.90;;;;;;5049294;28;20098;-83
2023/12/14 13:04:33;;;;;;;0.40;0.40;;;;;;;;;;5049318;28;20017;-80
2023/12/14 13:07:02;;;;;;;0.57;0.57;;;;;;;;;;5056094;28;20028;-82
2023/12/14 13:09:28;;;;;;;0.50;0.50;;;;;;;;;;5053813;28;20568;-83
2023/12/14 13:11:54;;;;;;;0.50;0.45;;;;;;;;;;5041611;28;20132;-85
2023/12/14 13:14:20;;;;;;;0.50;0.50;;;;;;;;;;5044479;28;20028;-84
2023/12/14 13:16:47;;;;;;;0.85;0.70;;;;;;;;;;5061849;28;20480;-89
2023/12/14 13:19:13;;;;;;;0.90;0.70;;;;;;;;;;5050583;28;20520;-89
2023/12/14 13:21:39;;;;;;;1.55;0.60;;;;;;;;;;5051330;28;20124;-86
2023/12/14 13:24:05;;;;;;;0.65;0.65;;;9.40;99.90;;;;;;5048677;28;20568;-79
2023/12/14 13:26:31;;;;;;;1.30;0.60;;;;;;;;;;5048079;28;20036;-81
2023/12/14 13:28:57;;;;;;;0.85;0.73;;;;;;;;;;5047761;28;20017;-79
2023/12/14 13:31:23;;;;;;;0.60;0.60;;;;;;;;;;5048965;28;20155;-82
2023/12/14 13:33:50;;;;;;;2.05;0.50;;;;;;;;;;5048685;28;20496;-83
2023/12/14 13:36:16;;;;;;;0.40;0.40;;;;;;;;;;5038335;28;20740;-84
2023/12/14 13:38:42;;;;;;;1.05;0.70;;;9.00;92.90;;;;;;5048592;28;20031;-85
2023/12/14 13:41:08;;;;;;;1.13;0.60;;;8.90;93.40;;;;;;5060085;28;20021;-84
2023/12/14 13:43:35;;;;;;;1.02;0.70;;;;;;;;;;5048421;28;20056;-83
2023/12/14 13:46:01;;;;;;;1.15;1.05;;;;;;;;;;5060190;28;20595;-84
2023/12/14 13:48:28;;;;;;;4.78;1.50;;;8.80;94.90;;;;;;5047488;28;20025;-81
2023/12/14 13:50:54;;;;;;;0.70;0.70;;;;;;;;;;5049955;28;20476;-78
2023/12/14 13:53:21;;;;;;;0.98;0.73;;;;;;;;;;5048761;28;20129;-78
2023/12/14 13:55:48;;;;;;;2.08;1.15;;;;;;;;;;5047739;28;20140;-79
2023/12/14 13:58:14;;;;;;;0.80;0.80;;;;;;;;;;5050381;28;20029;-77
2023/12/14 14:00:40;;;;;;;1.38;0.90;;;;;;;;;;5051780;28;20088;-82
2023/12/14 14:03:06;;;;;;;1.30;0.80;;;8.60;99.90;;;;;;5049898;28;20490;-80
2023/12/14 14:05:33;;;;;;;0.68;0.68;;;8.40;96.40;;;;;;5051214;28;20041;-83
2023/12/14 14:07:59;;;;;;;1.73;1.20;;;8.50;99.90;;;;;;5052822;28;20486;-83